Time;durP1;ratioP1;P1;durP2;ratioP2;P2;SDS_P1;SDS_P2;PMS_P1;PMS_P2;Temp;Humidity;BMP_temperature;BMP_pressure;BME280_temperature;BME280_humidity;BME280_pressure;Samples;Min_cycle;Max_cycle;Signal;HPM_P1;HPM_P2
2021/03/04 00:00:09;;;;;;;66.18;31.17;;;9.00;86.80;;;;;;5010221;28;20513;-84
2021/03/04 00:02:35;;;;;;;68.90;31.30;;;9.00;86.90;;;;;;4994243;28;20081;-84
2021/03/04 00:05:01;;;;;;;66.35;30.80;;;9.00;87.10;;;;;;4993434;28;20103;-84
2021/03/04 00:07:26;;;;;;;71.00;31.73;;;9.00;87.10;;;;;;4993899;28;20042;-84
2021/03/04 00:09:52;;;;;;;65.53;30.75;;;8.90;87.10;;;;;;5011286;28;20030;-85
2021/03/04 00:12:18;;;;;;;69.18;32.20;;;9.00;87.20;;;;;;5010204;28;20034;-84
2021/03/04 00:14:44;;;;;;;67.90;33.08;;;8.90;87.10;;;;;;5010226;28;20030;-85
2021/03/04 00:17:10;;;;;;;68.28;32.63;;;8.90;87.20;;;;;;5010122;28;20116;-84
2021/03/04 00:19:35;;;;;;;64.88;30.88;;;8.90;87.40;;;;;;4994017;28;20085;-84
2021/03/04 00:22:01;;;;;;;63.50;29.75;;;8.90;87.60;;;;;;5009651;28;20033;-85
2021/03/04 00:24:27;;;;;;;71.20;32.35;;;8.80;87.40;;;;;;4993750;28;20018;-84
2021/03/04 00:26:53;;;;;;;62.35;29.40;;;8.90;87.60;;;;;;4977603;28;20042;-84
2021/03/04 00:29:18;;;;;;;72.45;30.83;;;8.80;87.60;;;;;;5010151;28;20030;-85
2021/03/04 00:31:44;;;;;;;78.05;33.53;;;8.80;87.60;;;;;;4993778;28;20034;-84
2021/03/04 00:34:10;;;;;;;75.63;33.60;;;8.80;87.90;;;;;;5010010;28;20033;-84
2021/03/04 00:36:35;;;;;;;78.63;34.05;;;8.80;87.90;;;;;;4994084;28;20444;-84
2021/03/04 00:39:04;;;;;;;69.68;33.22;;;8.80;87.80;;;;;;4994971;28;20466;-85
2021/03/04 00:41:30;;;;;;;72.85;34.22;;;8.70;87.80;;;;;;5015083;28;20021;-85
2021/03/04 00:43:55;;;;;;;74.57;34.35;;;8.80;88.10;;;;;;4997080;28;20036;-84
2021/03/04 00:46:21;;;;;;;73.03;32.85;;;8.70;88.00;;;;;;5013268;28;20047;-84
2021/03/04 00:48:46;;;;;;;69.35;31.70;;;8.70;88.00;;;;;;4997193;28;20033;-84
2021/03/04 00:51:12;;;;;;;65.68;31.13;;;8.60;88.00;;;;;;5013373;28;20363;-84
2021/03/04 00:53:38;;;;;;;66.47;30.85;;;8.70;88.30;;;;;;5013643;28;20054;-84
2021/03/04 00:56:03;;;;;;;68.53;31.67;;;8.70;88.20;;;;;;5013290;28;20049;-84
2021/03/04 00:58:29;;;;;;;66.15;30.33;;;8.60;88.80;;;;;;5019237;28;20054;-84
2021/03/04 01:00:55;;;;;;;60.78;29.00;;;8.60;88.20;;;;;;4984041;28;20030;-84
2021/03/04 01:03:20;;;;;;;63.58;29.38;;;8.60;88.30;;;;;;5016156;28;20052;-84
2021/03/04 01:05:46;;;;;;;61.80;29.10;;;8.60;88.30;;;;;;5016763;28;20049;-84
2021/03/04 01:08:11;;;;;;;63.58;29.90;;;8.60;88.30;;;;;;4999651;28;20090;-84
2021/03/04 01:10:40;;;;;;;61.03;28.55;;;8.60;88.30;;;;;;5033952;28;20057;-85
2021/03/04 01:13:06;;;;;;;65.85;29.48;;;8.50;88.40;;;;;;5016092;28;20075;-84
2021/03/04 01:15:33;;;;;;;69.25;30.08;;;8.60;88.40;;;;;;5000216;28;20072;-84
2021/03/04 01:17:59;;;;;;;68.50;30.77;;;8.60;88.60;;;;;;5016051;28;20045;-84
2021/03/04 01:20:25;;;;;;;63.05;29.42;;;8.50;88.50;;;;;;4999462;28;20029;-84
2021/03/04 01:22:51;;;;;;;66.45;29.75;;;8.50;88.70;;;;;;5016200;28;20236;-85
2021/03/04 01:25:18;;;;;;;65.72;29.52;;;8.50;88.60;;;;;;5032269;28;20025;-84
2021/03/04 01:27:47;;;;;;;58.03;26.70;;;8.50;88.70;;;;;;5016259;28;20057;-84
2021/03/04 01:30:13;;;;;;;57.50;27.33;;;8.50;88.80;;;;;;5033516;28;20359;-84
2021/03/04 01:32:39;;;;;;;59.72;28.73;;;8.50;88.80;;;;;;5015951;28;20036;-84
2021/03/04 01:35:08;;;;;;;63.53;28.25;;;8.50;89.00;;;;;;5033386;28;20466;-84
2021/03/04 01:37:34;;;;;;;55.30;26.05;;;8.40;88.80;;;;;;4999358;28;20124;-84
2021/03/04 01:40:00;;;;;;;51.80;24.83;;;8.40;88.90;;;;;;5033292;28;20413;-85
2021/03/04 01:42:25;;;;;;;56.03;25.80;;;8.40;89.00;;;;;;5016570;28;20024;-84
2021/03/04 01:44:51;;;;;;;58.03;27.58;;;8.40;89.00;;;;;;5026839;28;20032;-84
2021/03/04 01:47:19;;;;;;;60.92;27.40;;;8.40;89.00;;;;;;5034829;28;20504;-84
2021/03/04 01:49:46;;;;;;;61.63;27.30;;;8.40;89.10;;;;;;5035600;28;20476;-84
2021/03/04 01:52:11;;;;;;;55.13;26.17;;;8.40;89.20;;;;;;5034149;28;20478;-84
2021/03/04 01:54:37;;;;;;;57.72;25.52;;;8.40;89.10;;;;;;5035139;28;20033;-84
2021/03/04 01:57:04;;;;;;;51.70;24.40;;;8.40;89.20;;;;;;5018946;28;20071;-84
2021/03/04 01:59:30;;;;;;;51.72;24.10;;;8.40;89.20;;;;;;5052617;28;20049;-84
2021/03/04 02:01:55;;;;;;;51.45;25.45;;;8.30;89.20;;;;;;5040067;28;20029;-83
2021/03/04 02:04:21;;;;;;;52.47;24.52;;;8.30;89.30;;;;;;4982635;28;20044;-84
2021/03/04 02:06:57;;;;;;;51.17;24.00;;;8.30;89.30;;;;;;5015248;28;20040;-84
2021/03/04 02:09:24;;;;;;;51.40;24.83;;;8.30;90.00;;;;;;5046679;28;20451;-84
2021/03/04 02:12:02;;;;;;;48.17;23.92;;;8.30;89.50;;;;;;4999003;28;20496;-84
2021/03/04 02:14:33;;;;;;;47.00;23.05;;;8.30;89.50;;;;;;5014615;28;20070;-84
2021/03/04 02:17:04;;;;;;;45.90;21.60;;;8.30;89.50;;;;;;5015132;28;20037;-84
2021/03/04 02:19:48;;;;;;;46.53;22.58;;;8.30;89.60;;;;;;5049427;28;20036;-83
2021/03/04 02:23:05;;;;;;;41.10;21.90;;;8.20;89.50;;;;;;5051363;28;20025;-84
2021/03/04 02:25:58;;;;;;;42.13;21.90;;;8.20;89.50;;;;;;5052281;28;20291;-85
2021/03/04 02:28:26;;;;;;;44.53;22.15;;;8.20;89.50;;;;;;5025021;28;20111;-84
2021/03/04 02:30:54;;;;;;;46.65;24.83;;;8.20;89.70;;;;;;5034180;28;20036;-84
2021/03/04 02:33:25;;;;;;;44.42;23.23;;;8.10;89.40;;;;;;5014728;28;20029;-85
2021/03/04 02:35:51;;;;;;;44.67;21.15;;;8.10;89.50;;;;;;5032202;28;20517;-84
2021/03/04 02:38:20;;;;;;;41.60;21.67;;;8.00;89.60;;;;;;5035115;28;20017;-85
2021/03/04 02:40:51;;;;;;;42.40;22.38;;;8.00;89.80;;;;;;5033945;28;20626;-85
2021/03/04 02:43:19;;;;;;;45.22;21.95;;;8.00;89.70;;;;;;5019708;28;20033;-84
2021/03/04 02:45:45;;;;;;;43.63;20.48;;;8.00;89.80;;;;;;5042582;28;20104;-85
2021/03/04 02:48:13;;;;;;;42.83;20.63;;;8.00;89.80;;;;;;5014037;28;20033;-85
2021/03/04 02:50:41;;;;;;;41.90;22.08;;;7.90;89.80;;;;;;5013927;28;20028;-84
2021/03/04 02:53:08;;;;;;;48.15;22.92;;;8.00;90.00;;;;;;5044730;28;20036;-84
2021/03/04 02:55:34;;;;;;;47.90;20.55;;;7.90;89.90;;;;;;5033694;28;20021;-84
2021/03/04 02:58:01;;;;;;;44.63;21.05;;;7.90;90.00;;;;;;5051911;28;20037;-83
2021/03/04 03:00:29;;;;;;;46.88;23.05;;;7.90;90.00;;;;;;5030032;28;20044;-84
2021/03/04 03:02:57;;;;;;;44.28;21.65;;;8.00;90.10;;;;;;5029761;28;20037;-84
2021/03/04 03:05:25;;;;;;;49.88;22.65;;;7.90;90.00;;;;;;5030523;28;20025;-84
2021/03/04 03:07:51;;;;;;;46.42;22.60;;;7.90;90.10;;;;;;5031877;28;20080;-83
2021/03/04 03:10:18;;;;;;;49.25;22.88;;;7.90;90.10;;;;;;5030699;28;20034;-85
2021/03/04 03:12:46;;;;;;;49.58;23.10;;;7.90;90.10;;;;;;5031669;28;20025;-84
2021/03/04 03:15:18;;;;;;;48.65;24.15;;;7.90;90.20;;;;;;5031835;28;20021;-83
2021/03/04 03:17:45;;;;;;;45.08;21.33;;;7.80;90.20;;;;;;5030362;28;20439;-84
2021/03/04 03:20:15;;;;;;;42.72;20.67;;;7.80;90.10;;;;;;5030305;28;20040;-84
2021/03/04 03:22:42;;;;;;;40.17;20.23;;;7.80;90.20;;;;;;5030511;28;20026;-85
2021/03/04 03:25:09;;;;;;;46.03;21.98;;;7.80;90.20;;;;;;5031018;28;20276;-84
2021/03/04 03:27:35;;;;;;;42.00;20.42;;;7.80;90.20;;;;;;5030103;28;20766;-84
2021/03/04 03:30:04;;;;;;;48.17;22.83;;;7.80;90.20;;;;;;5030352;28;20033;-84
2021/03/04 03:32:31;;;;;;;40.33;19.25;;;7.80;90.30;;;;;;5013682;28;20022;-83
2021/03/04 03:34:59;;;;;;;46.05;20.23;;;7.80;90.30;;;;;;5030511;28;20026;-84
2021/03/04 03:37:26;;;;;;;41.45;19.85;;;7.70;90.30;;;;;;5018078;28;20084;-84
2021/03/04 03:39:53;;;;;;;47.53;21.90;;;7.70;90.30;;;;;;5010676;28;20034;-84
2021/03/04 03:42:20;;;;;;;47.95;22.55;;;7.70;90.30;;;;;;5026821;28;20034;-84
2021/03/04 03:44:47;;;;;;;47.45;21.48;;;7.70;90.40;;;;;;5027007;28;20026;-84
2021/03/04 03:47:15;;;;;;;41.75;21.88;;;7.70;90.40;;;;;;5021672;28;20500;-85
2021/03/04 03:49:41;;;;;;;44.13;20.40;;;7.70;90.40;;;;;;5029565;28;20435;-84
2021/03/04 03:52:07;;;;;;;42.00;20.80;;;7.70;90.40;;;;;;5013921;28;20037;-84
2021/03/04 03:54:34;;;;;;;41.75;20.42;;;7.70;90.40;;;;;;5030059;28;20061;-84
2021/03/04 03:57:01;;;;;;;43.88;20.58;;;7.70;90.40;;;;;;5029664;28;21091;-84
2021/03/04 03:59:27;;;;;;;41.70;19.45;;;7.60;90.40;;;;;;5013133;28;20045;-84
2021/03/04 04:01:54;;;;;;;38.08;19.35;;;7.60;90.40;;;;;;5030114;28;20497;-84
2021/03/04 04:04:20;;;;;;;40.72;19.42;;;7.60;90.40;;;;;;5029676;28;20433;-84
2021/03/04 04:06:47;;;;;;;38.47;18.98;;;7.60;90.40;;;;;;5030193;28;20037;-84
2021/03/04 04:09:13;;;;;;;40.53;19.52;;;7.60;90.40;;;;;;5029909;28;20474;-84
2021/03/04 04:11:39;;;;;;;39.92;19.83;;;7.60;90.40;;;;;;5029706;28;20034;-84
2021/03/04 04:14:05;;;;;;;38.97;18.70;;;7.60;90.50;;;;;;5017213;28;20112;-84
2021/03/04 04:16:31;;;;;;;40.75;19.58;;;7.60;90.50;;;;;;5035100;28;20042;-84
2021/03/04 04:18:57;;;;;;;34.35;17.38;;;7.60;90.50;;;;;;5032238;28;20037;-85
2021/03/04 04:21:23;;;;;;;39.15;18.73;;;7.60;90.70;;;;;;5014594;28;20022;-84
2021/03/04 04:23:50;;;;;;;36.70;18.38;;;7.60;90.40;;;;;;5030274;28;20381;-83
2021/03/04 04:26:17;;;;;;;35.35;17.27;;;7.60;90.70;;;;;;5033357;28;20052;-84
2021/03/04 04:28:43;;;;;;;37.58;17.70;;;7.60;90.50;;;;;;5033678;28;20103;-84
2021/03/04 04:31:09;;;;;;;35.83;18.35;;;7.60;90.50;;;;;;5033642;28;20382;-84
2021/03/04 04:33:35;;;;;;;36.33;17.15;;;7.50;90.40;;;;;;5032852;28;20036;-83
2021/03/04 04:36:00;;;;;;;37.80;18.65;;;7.50;90.40;;;;;;5033046;28;20029;-84
2021/03/04 04:38:26;;;;;;;38.88;19.23;;;7.50;90.40;;;;;;5033943;28;20103;-84
2021/03/04 04:40:52;;;;;;;43.78;20.67;;;7.50;90.50;;;;;;5033475;28;20542;-83
2021/03/04 04:43:18;;;;;;;40.03;19.52;;;7.50;90.50;;;;;;5033616;28;20478;-84
2021/03/04 04:45:44;;;;;;;40.65;19.50;;;7.50;90.50;;;;;;5004611;28;20037;-84
2021/03/04 04:48:10;;;;;;;40.88;18.10;;;7.50;90.50;;;;;;5013283;28;20053;-84
2021/03/04 04:50:35;;;;;;;39.22;18.38;;;7.50;90.50;;;;;;4980141;28;20077;-84
2021/03/04 04:53:01;;;;;;;40.08;20.08;;;7.50;90.60;;;;;;5029775;28;20026;-84
2021/03/04 04:55:27;;;;;;;44.08;20.35;;;7.40;90.80;;;;;;5029346;28;20072;-85
2021/03/04 04:57:52;;;;;;;42.15;19.02;;;7.40;90.60;;;;;;5029705;28;20034;-84
2021/03/04 05:00:19;;;;;;;38.72;19.45;;;7.40;90.60;;;;;;5043586;28;20114;-84
2021/03/04 05:02:44;;;;;;;39.00;19.60;;;7.40;90.60;;;;;;5053846;28;20032;-83
2021/03/04 05:05:10;;;;;;;41.03;19.52;;;7.40;90.60;;;;;;5053905;28;20029;-84
2021/03/04 05:07:36;;;;;;;40.13;18.27;;;7.40;90.60;;;;;;4970388;28;20029;-84
2021/03/04 05:10:06;;;;;;;41.17;19.23;;;7.40;90.70;;;;;;5032782;28;20029;-84
2021/03/04 05:12:33;;;;;;;43.38;20.33;;;7.40;90.70;;;;;;5034207;28;20035;-84
2021/03/04 05:14:58;;;;;;;44.08;19.95;;;7.40;90.70;;;;;;5036145;28;20036;-84
2021/03/04 05:17:24;;;;;;;43.58;19.58;;;7.40;90.70;;;;;;5035586;28;20151;-85
2021/03/04 05:19:49;;;;;;;39.63;20.10;;;7.40;90.70;;;;;;5036040;28;20366;-85
2021/03/04 05:22:15;;;;;;;42.75;21.08;;;7.40;90.70;;;;;;5035868;28;20039;-83
2021/03/04 05:24:42;;;;;;;46.72;19.70;;;7.40;90.80;;;;;;5035032;28;20385;-84
2021/03/04 05:27:08;;;;;;;40.45;17.83;;;7.30;90.70;;;;;;5035094;28;20044;-84
2021/03/04 05:29:33;;;;;;;43.60;19.70;;;7.30;90.70;;;;;;5018821;28;20025;-84
2021/03/04 05:31:59;;;;;;;40.83;19.30;;;7.30;90.70;;;;;;5035933;28;20087;-84
2021/03/04 05:34:25;;;;;;;46.03;22.20;;;7.30;90.70;;;;;;5052858;28;20481;-85
2021/03/04 05:36:51;;;;;;;41.40;19.00;;;7.30;90.80;;;;;;5035845;28;20896;-84
2021/03/04 05:39:17;;;;;;;45.45;20.65;;;7.30;90.80;;;;;;5035137;28;20487;-84
2021/03/04 05:41:43;;;;;;;40.25;19.35;;;7.30;90.80;;;;;;4999046;28;20067;-83
2021/03/04 05:44:09;;;;;;;46.13;20.50;;;7.30;90.80;;;;;;5015839;28;20116;-84
2021/03/04 05:46:36;;;;;;;47.03;22.13;;;7.30;90.80;;;;;;5015655;28;20052;-84
2021/03/04 05:49:03;;;;;;;46.85;21.38;;;7.30;90.90;;;;;;4999742;28;20037;-83
2021/03/04 05:51:36;;;;;;;43.20;22.15;;;7.30;90.80;;;;;;5042995;28;20030;-84
2021/03/04 05:54:05;;;;;;;48.28;21.30;;;7.30;90.80;;;;;;5039739;28;20025;-84
2021/03/04 05:56:31;;;;;;;41.33;20.50;;;7.20;90.90;;;;;;5014032;28;20121;-84
2021/03/04 05:58:59;;;;;;;40.13;19.23;;;7.20;90.90;;;;;;5015555;28;20112;-83
2021/03/04 06:01:25;;;;;;;44.50;21.05;;;7.20;90.90;;;;;;4999070;28;20040;-84
2021/03/04 06:03:52;;;;;;;44.38;20.92;;;7.20;90.90;;;;;;4981538;28;20108;-84
2021/03/04 06:06:17;;;;;;;43.70;19.67;;;7.20;90.90;;;;;;5018354;28;20051;-84
2021/03/04 06:08:43;;;;;;;41.42;20.50;;;7.20;90.90;;;;;;5017846;28;20037;-84
2021/03/04 06:11:09;;;;;;;41.03;19.60;;;7.10;91.00;;;;;;4997347;28;20462;-84
2021/03/04 06:13:35;;;;;;;41.33;20.05;;;7.10;91.00;;;;;;4995627;28;20036;-85
2021/03/04 06:16:02;;;;;;;42.00;19.20;;;7.10;91.00;;;;;;5013182;28;20017;-85
2021/03/04 06:18:42;;;;;;;42.95;19.20;;;7.10;91.00;;;;;;5032851;28;20018;-83
2021/03/04 06:21:27;;;;;;;45.25;20.25;;;7.10;91.00;;;;;;5033224;28;20104;-85
2021/03/04 06:23:55;;;;;;;44.25;20.20;;;7.10;91.00;;;;;;5013474;28;20470;-84
2021/03/04 06:26:29;;;;;;;46.90;21.35;;;7.10;91.00;;;;;;5032551;28;20373;-85
2021/03/04 06:28:56;;;;;;;44.50;19.83;;;7.10;91.10;;;;;;5014839;28;20137;-85
2021/03/04 06:31:22;;;;;;;46.63;21.05;;;7.10;91.10;;;;;;5014428;28;20559;-85
2021/03/04 06:33:48;;;;;;;43.22;20.30;;;7.10;91.10;;;;;;4998254;28;20083;-85
2021/03/04 06:36:15;;;;;;;49.42;21.90;;;7.10;91.10;;;;;;5017916;28;20025;-85
2021/03/04 06:38:52;;;;;;;44.92;20.75;;;7.00;91.10;;;;;;4996539;28;20030;-84
2021/03/04 06:41:20;;;;;;;49.00;20.35;;;7.00;91.10;;;;;;4999883;28;20492;-84
2021/03/04 06:43:46;;;;;;;39.90;18.95;;;7.00;91.10;;;;;;5014900;28;20053;-85
2021/03/04 06:46:13;;;;;;;50.75;21.40;;;7.00;91.10;;;;;;4998524;28;20869;-85
2021/03/04 06:48:50;;;;;;;44.42;19.30;;;7.00;91.10;;;;;;5014252;28;20473;-87
2021/03/04 06:51:15;;;;;;;41.58;19.48;;;7.00;91.20;;;;;;5025481;28;20025;-87
2021/03/04 06:53:53;;;;;;;39.40;17.88;;;7.00;91.20;;;;;;5019509;28;20108;-86
2021/03/04 06:56:31;;;;;;;45.60;19.30;;;7.00;91.20;;;;;;5034394;28;20104;-85
2021/03/04 06:59:01;;;;;;;43.05;19.38;;;7.00;91.20;;;;;;5033862;28;20425;-85
2021/03/04 07:01:29;;;;;;;40.25;19.45;;;7.00;91.20;;;;;;5026632;28;20075;-86
2021/03/04 07:03:55;;;;;;;43.60;20.75;;;7.00;91.20;;;;;;5032343;28;20057;-86
2021/03/04 07:06:25;;;;;;;39.38;18.88;;;7.00;91.20;;;;;;5032128;28;20038;-85
2021/03/04 07:08:53;;;;;;;43.13;18.75;;;7.00;91.30;;;;;;5014970;28;20029;-86
2021/03/04 07:11:20;;;;;;;48.60;20.33;;;7.00;91.30;;;;;;5038733;28;20040;-86
2021/03/04 07:13:48;;;;;;;39.78;19.80;;;6.90;91.30;;;;;;5013976;28;20028;-86
2021/03/04 07:16:27;;;;;;;41.97;21.10;;;7.00;91.30;;;;;;4993619;28;20128;-84
2021/03/04 07:18:54;;;;;;;46.75;20.45;;;6.90;91.30;;;;;;5030709;28;20474;-85
2021/03/04 07:21:23;;;;;;;43.75;19.08;;;7.00;91.30;;;;;;5019102;28;20035;-85
2021/03/04 07:23:49;;;;;;;41.45;19.35;;;7.00;91.30;;;;;;5031633;28;20482;-85
2021/03/04 07:26:16;;;;;;;41.67;19.17;;;7.00;91.30;;;;;;5014038;28;20052;-85
2021/03/04 07:28:44;;;;;;;44.50;20.42;;;6.90;91.30;;;;;;4997959;28;20025;-85
2021/03/04 07:31:11;;;;;;;47.40;20.73;;;6.90;91.40;;;;;;5017113;28;20550;-85
2021/03/04 07:33:44;;;;;;;43.75;20.73;;;7.00;91.40;;;;;;5010803;28;20108;-84
2021/03/04 07:36:12;;;;;;;50.00;21.80;;;6.90;91.40;;;;;;5014378;28;20532;-85
2021/03/04 07:38:39;;;;;;;43.53;18.80;;;6.90;91.40;;;;;;5031442;28;20034;-84
2021/03/04 07:41:12;;;;;;;42.63;19.35;;;6.90;91.40;;;;;;4997829;28;20064;-85
2021/03/04 07:43:46;;;;;;;45.28;19.23;;;6.90;91.40;;;;;;5013714;28;20022;-84
2021/03/04 07:46:25;;;;;;;46.15;20.15;;;6.90;91.40;;;;;;5014022;28;20473;-85
2021/03/04 07:48:52;;;;;;;45.30;19.52;;;6.90;91.50;;;;;;5014681;28;20043;-85
2021/03/04 07:51:18;;;;;;;45.10;19.58;;;6.90;91.40;;;;;;5018201;28;20029;-84
2021/03/04 07:53:46;;;;;;;43.45;19.02;;;6.90;91.40;;;;;;5034237;28;20025;-84
2021/03/04 07:56:25;;;;;;;45.47;19.25;;;6.90;91.40;;;;;;5017509;28;20359;-84
2021/03/04 07:58:52;;;;;;;45.97;19.85;;;6.90;91.50;;;;;;5048833;28;20108;-84
2021/03/04 08:01:18;;;;;;;43.35;19.13;;;6.80;91.50;;;;;;5018005;28;20049;-84
2021/03/04 08:03:48;;;;;;;50.60;20.58;;;6.90;91.50;;;;;;4987920;28;20091;-84
2021/03/04 08:06:14;;;;;;;44.37;19.10;;;6.80;91.50;;;;;;5048995;28;20431;-85
2021/03/04 08:08:40;;;;;;;44.13;17.00;;;6.80;91.50;;;;;;5034616;28;20037;-88
2021/03/04 08:11:06;;;;;;;41.60;16.98;;;6.80;91.50;;;;;;5024910;28;20022;-87
2021/03/04 08:13:36;;;;;;;44.63;17.55;;;6.80;91.50;;;;;;5028536;28;20426;-84
2021/03/04 08:16:11;;;;;;;41.97;17.40;;;6.80;91.50;;;;;;5032627;28;20032;-84
2021/03/04 08:18:38;;;;;;;43.33;17.80;;;6.80;91.60;;;;;;5007273;28;20486;-84
2021/03/04 08:21:05;;;;;;;43.33;18.73;;;6.80;91.60;;;;;;5021700;28;20116;-83
2021/03/04 08:23:31;;;;;;;43.63;17.90;;;6.80;91.60;;;;;;5041714;28;20025;-84
2021/03/04 08:25:59;;;;;;;41.65;17.88;;;6.80;91.60;;;;;;5032913;28;20034;-84
2021/03/04 08:28:26;;;;;;;39.30;16.35;;;6.80;91.60;;;;;;5032985;28;20029;-84
2021/03/04 08:30:52;;;;;;;46.28;18.35;;;6.80;91.60;;;;;;5014803;28;20021;-84
2021/03/04 08:33:19;;;;;;;40.95;18.20;;;6.80;91.60;;;;;;5034948;28;20128;-87
2021/03/04 08:35:47;;;;;;;51.55;19.88;;;6.80;91.60;;;;;;5016605;28;20022;-84
2021/03/04 08:38:14;;;;;;;41.10;17.63;;;6.80;91.60;;;;;;5016910;28;20053;-84
2021/03/04 08:40:52;;;;;;;46.58;21.15;;;6.90;91.70;;;;;;5016754;28;20116;-85
2021/03/04 08:43:20;;;;;;;45.22;19.30;;;6.80;91.60;;;;;;5034692;28;20181;-85
2021/03/04 08:45:49;;;;;;;45.78;19.13;;;6.80;91.60;;;;;;4999893;28;20029;-84
2021/03/04 08:48:15;;;;;;;51.50;19.77;;;6.80;91.70;;;;;;5015942;28;20037;-84
2021/03/04 08:50:44;;;;;;;45.53;18.10;;;6.80;91.70;;;;;;5049752;28;20055;-85
2021/03/04 08:53:21;;;;;;;44.50;18.17;;;6.80;91.70;;;;;;5037866;28;20017;-84
2021/03/04 08:56:02;;;;;;;43.83;17.80;;;6.80;91.70;;;;;;5044722;28;20009;-84
2021/03/04 08:58:29;;;;;;;39.75;17.63;;;6.80;91.70;;;;;;5036421;28;20025;-84
2021/03/04 09:00:58;;;;;;;40.60;16.60;;;6.80;91.70;;;;;;5053914;28;20075;-85
2021/03/04 09:03:27;;;;;;;43.30;18.45;;;6.80;91.70;;;;;;5020216;28;20021;-85
2021/03/04 09:06:05;;;;;;;43.40;17.15;;;6.80;91.70;;;;;;5033714;28;20361;-85
2021/03/04 09:08:39;;;;;;;43.03;18.45;;;6.80;91.80;;;;;;5023063;28;20064;-84
2021/03/04 09:11:08;;;;;;;40.75;16.80;;;6.80;91.80;;;;;;5050763;28;20013;-84
2021/03/04 09:13:34;;;;;;;47.20;18.58;;;6.80;91.80;;;;;;5054420;28;20044;-84
2021/03/04 09:16:07;;;;;;;45.42;17.90;;;6.80;91.80;;;;;;5021656;28;20061;-84
2021/03/04 09:18:42;;;;;;;36.85;16.55;;;6.90;91.80;;;;;;5054069;28;20021;-84
2021/03/04 09:21:14;;;;;;;39.58;16.40;;;6.80;91.80;;;;;;5036017;28;20396;-84
2021/03/04 09:23:41;;;;;;;37.80;16.15;;;6.80;91.80;;;;;;5018962;28;20040;-84
2021/03/04 09:26:08;;;;;;;39.45;16.67;;;6.80;91.80;;;;;;5035539;28;20116;-85
2021/03/04 09:28:36;;;;;;;37.35;17.02;;;6.80;91.80;;;;;;5054091;28;20112;-84
2021/03/04 09:31:13;;;;;;;35.95;16.55;;;6.80;91.80;;;;;;5035483;28;20028;-85
2021/03/04 09:33:39;;;;;;;34.03;14.23;;;6.80;91.80;;;;;;5008635;28;20033;-84
2021/03/04 09:36:06;;;;;;;40.25;16.17;;;6.80;91.80;;;;;;5035710;28;20032;-84
2021/03/04 09:38:35;;;;;;;36.75;14.95;;;6.80;91.80;;;;;;5019269;28;20424;-84
2021/03/04 09:41:18;;;;;;;35.50;15.43;;;6.80;91.80;;;;;;5053265;28;20450;-84
2021/03/04 09:43:47;;;;;;;31.98;13.80;;;6.80;91.90;;;;;;5038992;28;20028;-85
2021/03/04 09:46:25;;;;;;;34.50;14.65;;;6.80;91.90;;;;;;5036045;28;20052;-84
2021/03/04 09:48:51;;;;;;;37.10;16.38;;;6.80;91.90;;;;;;5035159;28;20020;-84
2021/03/04 09:51:16;;;;;;;35.40;15.40;;;6.90;91.90;;;;;;5053353;28;20029;-85
2021/03/04 09:53:44;;;;;;;33.05;14.23;;;6.90;91.90;;;;;;5035323;28;20369;-84
2021/03/04 09:56:09;;;;;;;33.58;14.05;;;6.90;91.90;;;;;;5052977;28;20088;-84
2021/03/04 09:58:42;;;;;;;34.03;13.48;;;6.80;91.90;;;;;;5052096;28;20153;-85
2021/03/04 10:01:07;;;;;;;35.03;15.23;;;6.90;91.90;;;;;;5027836;28;20077;-86
2021/03/04 10:03:38;;;;;;;35.53;15.65;;;6.90;91.90;;;;;;5014695;28;20077;-85
2021/03/04 10:06:06;;;;;;;;;;;6.90;91.90;;;;;;5014368;28;20068;-85
2021/03/04 10:08:42;;;;;;;29.75;12.88;;;6.90;91.90;;;;;;5014533;28;19913;-85
2021/03/04 10:11:19;;;;;;;29.70;12.88;;;6.90;91.90;;;;;;5013083;28;20014;-84
2021/03/04 10:13:44;;;;;;;29.92;13.82;;;6.90;91.90;;;;;;5013569;28;20025;-84
2021/03/04 10:16:11;;;;;;;30.92;13.40;;;6.90;91.90;;;;;;4998947;28;20032;-84
2021/03/04 10:18:37;;;;;;;31.42;14.25;;;6.90;91.90;;;;;;5029743;28;20115;-85
2021/03/04 10:21:04;;;;;;;29.60;12.38;;;6.90;91.90;;;;;;5033539;28;20104;-85
2021/03/04 10:23:31;;;;;;;26.65;12.43;;;6.90;91.90;;;;;;5051360;28;20036;-85
2021/03/04 10:25:56;;;;;;;29.08;12.43;;;6.90;91.90;;;;;;5034122;28;20029;-85
2021/03/04 10:28:22;;;;;;;29.48;12.50;;;6.90;91.90;;;;;;5053040;28;20041;-85
2021/03/04 10:30:48;;;;;;;29.42;12.90;;;6.90;91.80;;;;;;5038810;28;20111;-84
2021/03/04 10:33:13;;;;;;;27.33;11.05;;;7.00;91.80;;;;;;5046205;28;20450;-85
2021/03/04 10:35:39;;;;;;;24.65;11.40;;;6.90;91.80;;;;;;5044682;28;20132;-85
2021/03/04 10:38:05;;;;;;;29.80;12.55;;;7.00;91.80;;;;;;5034588;28;20036;-85
2021/03/04 10:40:31;;;;;;;27.38;13.13;;;7.00;91.80;;;;;;5026510;28;20064;-88
2021/03/04 10:42:57;;;;;;;26.40;12.32;;;6.90;91.70;;;;;;5028446;28;20033;-88
2021/03/04 10:45:23;;;;;;;23.38;10.93;;;6.90;92.00;;;;;;5016527;28;20029;-88
2021/03/04 10:47:48;;;;;;;21.20;10.40;;;7.00;91.70;;;;;;5014278;28;20036;-87
2021/03/04 10:50:20;;;;;;;20.73;9.02;;;7.00;91.80;;;;;;5000275;28;20022;-88
2021/03/04 10:52:45;;;;;;;;;;;7.00;91.80;;;;;;5043864;28;20079;-88
2021/03/04 10:55:12;;;;;;;19.35;9.50;;;7.00;91.70;;;;;;5028724;28;19912;-87
2021/03/04 10:57:39;;;;;;;22.77;10.55;;;7.00;92.00;;;;;;5044220;28;20409;-88
2021/03/04 11:00:06;;;;;;;23.88;11.77;;;7.00;91.80;;;;;;5044056;28;20230;-88
2021/03/04 11:02:32;;;;;;;22.80;9.90;;;7.00;91.80;;;;;;4997607;28;20387;-87
2021/03/04 11:04:58;;;;;;;21.50;10.63;;;7.00;91.80;;;;;;5048153;28;20079;-87
2021/03/04 11:07:23;;;;;;;25.10;12.07;;;7.10;91.80;;;;;;5000881;28;20040;-86
2021/03/04 11:09:53;;;;;;;23.05;10.43;;;7.10;91.70;;;;;;5007515;28;20513;-86
2021/03/04 11:12:19;;;;;;;22.98;10.65;;;7.10;91.70;;;;;;5040978;28;20091;-87
2021/03/04 11:14:45;;;;;;;23.50;11.35;;;7.00;91.70;;;;;;4999947;28;20385;-88
2021/03/04 11:17:11;;;;;;;22.17;9.73;;;7.10;91.70;;;;;;4998749;28;20038;-88
2021/03/04 11:19:37;;;;;;;21.45;8.68;;;7.10;91.70;;;;;;5000179;28;20402;-88
2021/03/04 11:22:03;;;;;;;23.20;10.15;;;7.10;91.70;;;;;;4999180;28;20033;-87
2021/03/04 11:24:29;;;;;;;18.98;9.20;;;7.10;91.70;;;;;;5034686;28;20021;-88
2021/03/04 11:26:55;;;;;;;20.15;8.88;;;7.10;91.60;;;;;;5044174;28;20025;-88
2021/03/04 11:29:21;;;;;;;19.67;9.27;;;7.10;91.60;;;;;;5022720;28;20028;-88
2021/03/04 11:31:46;;;;;;;17.77;8.73;;;7.10;91.60;;;;;;5021958;28;20029;-86
2021/03/04 11:34:12;;;;;;;18.20;8.68;;;7.10;91.60;;;;;;5014598;28;20120;-85
2021/03/04 11:36:38;;;;;;;19.23;9.30;;;7.10;91.60;;;;;;4979699;28;20406;-86
2021/03/04 11:39:04;;;;;;;19.35;8.88;;;7.10;91.50;;;;;;5014278;28;20049;-85
2021/03/04 11:41:31;;;;;;;17.08;8.48;;;7.10;91.60;;;;;;5000066;28;20053;-87
2021/03/04 11:43:57;;;;;;;18.00;8.98;;;7.10;91.50;;;;;;5016581;28;20104;-88
2021/03/04 11:46:23;;;;;;;16.55;8.05;;;7.10;91.50;;;;;;5044098;28;20117;-88
2021/03/04 11:48:50;;;;;;;17.58;8.48;;;7.10;91.50;;;;;;5025122;28;20056;-88
2021/03/04 11:51:16;;;;;;;15.35;7.80;;;7.10;91.50;;;;;;5025159;28;20474;-84
2021/03/04 11:53:42;;;;;;;16.77;7.45;;;7.10;91.50;;;;;;5049317;28;20021;-87
2021/03/04 11:56:07;;;;;;;14.65;7.38;;;7.10;91.50;;;;;;5042376;28;20485;-85
2021/03/04 11:58:33;;;;;;;15.65;7.47;;;7.20;91.50;;;;;;4997621;28;20026;-85
2021/03/04 12:00:59;;;;;;;11.48;6.03;;;7.20;91.50;;;;;;5043378;28;20049;-84
2021/03/04 12:03:25;;;;;;;11.88;6.55;;;7.20;91.50;;;;;;5016192;28;20028;-86
2021/03/04 12:05:51;;;;;;;12.75;5.85;;;7.10;91.40;;;;;;5022893;28;20028;-85
2021/03/04 12:08:17;;;;;;;10.90;6.45;;;7.10;91.40;;;;;;4999567;28;20029;-83
2021/03/04 12:10:43;;;;;;;11.02;6.07;;;7.10;91.40;;;;;;5027516;28;20037;-85
2021/03/04 12:13:09;;;;;;;10.50;5.00;;;7.10;91.30;;;;;;5024262;28;20052;-85
2021/03/04 12:15:36;;;;;;;10.30;5.35;;;7.10;91.20;;;;;;5047468;28;20032;-85
2021/03/04 12:18:01;;;;;;;9.00;5.03;;;7.10;91.20;;;;;;5044978;28;20079;-85
2021/03/04 12:20:27;;;;;;;9.25;5.18;;;7.10;91.20;;;;;;5039035;28;20092;-85
2021/03/04 12:22:53;;;;;;;8.77;4.75;;;7.10;91.50;;;;;;5046043;28;20036;-85
2021/03/04 12:25:19;;;;;;;10.52;5.03;;;7.10;91.20;;;;;;5026672;28;20098;-85
2021/03/04 12:27:45;;;;;;;9.38;4.47;;;7.10;91.20;;;;;;5045111;28;20040;-87
2021/03/04 12:30:11;;;;;;;10.98;5.25;;;7.10;91.20;;;;;;4978584;28;20022;-88
2021/03/04 12:32:37;;;;;;;8.95;4.20;;;7.10;91.20;;;;;;5015082;28;20497;-89
2021/03/04 12:35:05;;;;;;;7.53;4.45;;;7.20;91.20;;;;;;5025995;28;20481;-86
2021/03/04 12:37:31;;;;;;;7.28;3.90;;;7.20;91.10;;;;;;5001355;28;20042;-87
2021/03/04 12:39:56;;;;;;;6.28;3.60;;;7.20;91.10;;;;;;5018995;28;20032;-88